sensor_id;sensor_type;location;lat;lon;timestamp;P1;durP1;ratioP1;P2;durP2;ratioP2
15689;SDS011;7945;48.816;11.506;2023-07-30T00:00:04;2.90;;;2.55;;
15689;SDS011;7945;48.816;11.506;2023-07-30T00:02:31;3.28;;;2.97;;
15689;SDS011;7945;48.816;11.506;2023-07-30T00:04:58;4.00;;;2.80;;
15689;SDS011;7945;48.816;11.506;2023-07-30T00:07:26;4.10;;;2.90;;
15689;SDS011;7945;48.816;11.506;2023-07-30T00:09:53;3.63;;;2.70;;
15689;SDS011;7945;48.816;11.506;2023-07-30T00:12:20;3.50;;;2.90;;
15689;SDS011;7945;48.816;11.506;2023-07-30T00:14:46;4.57;;;3.10;;
15689;SDS011;7945;48.816;11.506;2023-07-30T00:17:13;3.22;;;2.42;;
15689;SDS011;7945;48.816;11.506;2023-07-30T00:19:40;3.17;;;2.83;;
15689;SDS011;7945;48.816;11.506;2023-07-30T00:22:07;4.80;;;2.78;;
15689;SDS011;7945;48.816;11.506;2023-07-30T00:24:35;2.70;;;2.50;;
15689;SDS011;7945;48.816;11.506;2023-07-30T00:27:01;3.40;;;3.05;;
15689;SDS011;7945;48.816;11.506;2023-07-30T00:29:28;3.47;;;3.17;;
15689;SDS011;7945;48.816;11.506;2023-07-30T00:31:55;3.88;;;2.97;;
15689;SDS011;7945;48.816;11.506;2023-07-30T00:34:22;3.65;;;3.13;;
15689;SDS011;7945;48.816;11.506;2023-07-30T00:36:48;3.63;;;3.05;;
15689;SDS011;7945;48.816;11.506;2023-07-30T00:39:15;4.18;;;3.22;;
15689;SDS011;7945;48.816;11.506;2023-07-30T00:41:43;3.58;;;3.10;;
15689;SDS011;7945;48.816;11.506;2023-07-30T00:44:11;2.97;;;2.67;;
15689;SDS011;7945;48.816;11.506;2023-07-30T00:46:37;3.30;;;2.58;;
15689;SDS011;7945;48.816;11.506;2023-07-30T00:49:04;2.90;;;2.60;;
15689;SDS011;7945;48.816;11.506;2023-07-30T00:51:32;2.90;;;2.70;;
15689;SDS011;7945;48.816;11.506;2023-07-30T00:53:59;3.88;;;2.97;;
15689;SDS011;7945;48.816;11.506;2023-07-30T00:56:26;5.10;;;3.13;;
15689;SDS011;7945;48.816;11.506;2023-07-30T00:58:55;3.42;;;2.88;;
15689;SDS011;7945;48.816;11.506;2023-07-30T01:01:22;3.67;;;2.90;;
15689;SDS011;7945;48.816;11.506;2023-07-30T01:03:49;4.80;;;2.83;;
15689;SDS011;7945;48.816;11.506;2023-07-30T01:06:17;3.75;;;2.65;;
15689;SDS011;7945;48.816;11.506;2023-07-30T01:08:44;3.45;;;2.47;;
15689;SDS011;7945;48.816;11.506;2023-07-30T01:11:11;3.95;;;3.00;;
15689;SDS011;7945;48.816;11.506;2023-07-30T01:13:39;3.35;;;3.05;;
15689;SDS011;7945;48.816;11.506;2023-07-30T01:16:08;3.25;;;2.90;;
15689;SDS011;7945;48.816;11.506;2023-07-30T01:18:36;3.38;;;2.55;;
15689;SDS011;7945;48.816;11.506;2023-07-30T01:21:04;3.50;;;2.55;;
15689;SDS011;7945;48.816;11.506;2023-07-30T01:23:31;4.07;;;2.70;;
15689;SDS011;7945;48.816;11.506;2023-07-30T01:25:59;3.58;;;2.75;;
15689;SDS011;7945;48.816;11.506;2023-07-30T01:28:30;5.28;;;2.60;;
15689;SDS011;7945;48.816;11.506;2023-07-30T01:31:02;3.03;;;2.60;;
15689;SDS011;7945;48.816;11.506;2023-07-30T01:33:29;3.97;;;2.90;;
15689;SDS011;7945;48.816;11.506;2023-07-30T01:35:57;4.80;;;2.75;;
15689;SDS011;7945;48.816;11.506;2023-07-30T01:38:26;2.88;;;2.42;;
15689;SDS011;7945;48.816;11.506;2023-07-30T01:40:53;5.18;;;2.65;;
15689;SDS011;7945;48.816;11.506;2023-07-30T01:43:20;3.97;;;2.65;;
15689;SDS011;7945;48.816;11.506;2023-07-30T01:45:47;3.03;;;2.67;;
15689;SDS011;7945;48.816;11.506;2023-07-30T01:48:14;2.95;;;2.45;;
15689;SDS011;7945;48.816;11.506;2023-07-30T01:50:40;6.72;;;2.97;;
15689;SDS011;7945;48.816;11.506;2023-07-30T01:53:08;2.55;;;2.35;;
15689;SDS011;7945;48.816;11.506;2023-07-30T01:55:36;2.35;;;1.27;;
15689;SDS011;7945;48.816;11.506;2023-07-30T01:58:04;1.60;;;1.38;;
15689;SDS011;7945;48.816;11.506;2023-07-30T02:00:31;1.38;;;1.20;;
15689;SDS011;7945;48.816;11.506;2023-07-30T02:02:57;2.95;;;1.10;;
15689;SDS011;7945;48.816;11.506;2023-07-30T02:05:24;2.30;;;1.15;;
15689;SDS011;7945;48.816;11.506;2023-07-30T02:07:51;1.80;;;0.88;;
15689;SDS011;7945;48.816;11.506;2023-07-30T02:10:17;1.67;;;0.93;;
15689;SDS011;7945;48.816;11.506;2023-07-30T02:12:46;1.20;;;1.10;;
15689;SDS011;7945;48.816;11.506;2023-07-30T02:15:12;1.83;;;1.40;;
15689;SDS011;7945;48.816;11.506;2023-07-30T02:17:39;1.73;;;1.25;;
15689;SDS011;7945;48.816;11.506;2023-07-30T02:20:06;1.60;;;1.15;;
15689;SDS011;7945;48.816;11.506;2023-07-30T02:22:34;2.45;;;1.52;;
15689;SDS011;7945;48.816;11.506;2023-07-30T02:25:01;2.00;;;1.27;;
15689;SDS011;7945;48.816;11.506;2023-07-30T02:27:28;2.15;;;1.15;;
15689;SDS011;7945;48.816;11.506;2023-07-30T02:29:56;1.73;;;1.23;;
15689;SDS011;7945;48.816;11.506;2023-07-30T02:32:23;2.13;;;1.17;;
15689;SDS011;7945;48.816;11.506;2023-07-30T02:34:50;2.58;;;1.05;;
15689;SDS011;7945;48.816;11.506;2023-07-30T02:37:17;3.00;;;1.30;;
15689;SDS011;7945;48.816;11.506;2023-07-30T02:39:43;2.10;;;1.40;;
15689;SDS011;7945;48.816;11.506;2023-07-30T02:42:10;1.27;;;1.17;;
15689;SDS011;7945;48.816;11.506;2023-07-30T02:44:37;1.30;;;1.20;;
15689;SDS011;7945;48.816;11.506;2023-07-30T02:47:05;2.65;;;1.52;;
15689;SDS011;7945;48.816;11.506;2023-07-30T02:49:32;3.85;;;1.45;;
15689;SDS011;7945;48.816;11.506;2023-07-30T02:51:59;1.83;;;1.50;;
15689;SDS011;7945;48.816;11.506;2023-07-30T02:54:25;1.55;;;1.13;;
15689;SDS011;7945;48.816;11.506;2023-07-30T02:56:52;1.75;;;1.20;;
15689;SDS011;7945;48.816;11.506;2023-07-30T02:59:19;2.83;;;1.50;;
15689;SDS011;7945;48.816;11.506;2023-07-30T03:01:46;3.25;;;1.48;;
15689;SDS011;7945;48.816;11.506;2023-07-30T03:04:14;2.88;;;1.30;;
15689;SDS011;7945;48.816;11.506;2023-07-30T03:06:40;1.88;;;1.35;;
15689;SDS011;7945;48.816;11.506;2023-07-30T03:09:07;1.40;;;1.30;;
15689;SDS011;7945;48.816;11.506;2023-07-30T03:11:34;1.55;;;1.30;;
15689;SDS011;7945;48.816;11.506;2023-07-30T03:14:01;3.00;;;1.38;;
15689;SDS011;7945;48.816;11.506;2023-07-30T03:16:27;2.92;;;1.38;;
15689;SDS011;7945;48.816;11.506;2023-07-30T03:18:54;1.48;;;1.25;;
15689;SDS011;7945;48.816;11.506;2023-07-30T03:21:22;3.00;;;1.35;;
15689;SDS011;7945;48.816;11.506;2023-07-30T03:23:49;3.15;;;1.58;;
15689;SDS011;7945;48.816;11.506;2023-07-30T03:26:16;3.65;;;1.40;;
15689;SDS011;7945;48.816;11.506;2023-07-30T03:28:42;2.05;;;1.60;;
15689;SDS011;7945;48.816;11.506;2023-07-30T03:31:09;1.75;;;1.60;;
15689;SDS011;7945;48.816;11.506;2023-07-30T03:33:36;2.08;;;1.27;;
15689;SDS011;7945;48.816;11.506;2023-07-30T03:36:04;1.92;;;1.30;;
15689;SDS011;7945;48.816;11.506;2023-07-30T03:38:32;3.03;;;1.30;;
15689;SDS011;7945;48.816;11.506;2023-07-30T03:40:59;2.33;;;1.33;;
15689;SDS011;7945;48.816;11.506;2023-07-30T03:43:26;2.30;;;1.73;;
15689;SDS011;7945;48.816;11.506;2023-07-30T03:45:52;2.58;;;1.40;;
15689;SDS011;7945;48.816;11.506;2023-07-30T03:48:19;3.50;;;1.55;;
15689;SDS011;7945;48.816;11.506;2023-07-30T03:50:46;1.55;;;1.40;;
15689;SDS011;7945;48.816;11.506;2023-07-30T03:53:12;2.38;;;1.60;;
15689;SDS011;7945;48.816;11.506;2023-07-30T03:55:41;3.20;;;1.45;;
15689;SDS011;7945;48.816;11.506;2023-07-30T03:58:08;1.50;;;1.40;;
15689;SDS011;7945;48.816;11.506;2023-07-30T04:00:35;2.05;;;1.48;;
15689;SDS011;7945;48.816;11.506;2023-07-30T04:03:01;2.85;;;1.50;;
15689;SDS011;7945;48.816;11.506;2023-07-30T04:05:28;2.28;;;1.27;;
15689;SDS011;7945;48.816;11.506;2023-07-30T04:07:55;3.58;;;1.55;;
15689;SDS011;7945;48.816;11.506;2023-07-30T04:10:22;3.38;;;1.63;;
15689;SDS011;7945;48.816;11.506;2023-07-30T04:12:50;3.08;;;1.58;;
15689;SDS011;7945;48.816;11.506;2023-07-30T04:15:17;2.22;;;1.60;;
15689;SDS011;7945;48.816;11.506;2023-07-30T04:17:44;3.40;;;1.60;;
15689;SDS011;7945;48.816;11.506;2023-07-30T04:20:11;2.97;;;1.42;;
15689;SDS011;7945;48.816;11.506;2023-07-30T04:22:37;2.55;;;1.40;;
15689;SDS011;7945;48.816;11.506;2023-07-30T04:25:07;3.08;;;1.50;;
15689;SDS011;7945;48.816;11.506;2023-07-30T04:27:35;2.65;;;1.85;;
15689;SDS011;7945;48.816;11.506;2023-07-30T04:30:04;2.78;;;1.40;;
15689;SDS011;7945;48.816;11.506;2023-07-30T04:32:31;2.15;;;1.42;;
15689;SDS011;7945;48.816;11.506;2023-07-30T04:34:58;2.72;;;1.77;;
15689;SDS011;7945;48.816;11.506;2023-07-30T04:37:25;2.25;;;1.67;;
15689;SDS011;7945;48.816;11.506;2023-07-30T04:39:51;2.10;;;1.45;;
15689;SDS011;7945;48.816;11.506;2023-07-30T04:42:18;1.95;;;1.50;;
15689;SDS011;7945;48.816;11.506;2023-07-30T04:44:45;5.70;;;1.60;;
15689;SDS011;7945;48.816;11.506;2023-07-30T04:47:13;2.13;;;1.92;;
15689;SDS011;7945;48.816;11.506;2023-07-30T04:49:40;2.30;;;1.65;;
15689;SDS011;7945;48.816;11.506;2023-07-30T04:52:07;3.85;;;1.45;;
15689;SDS011;7945;48.816;11.506;2023-07-30T04:54:34;4.00;;;1.67;;
15689;SDS011;7945;48.816;11.506;2023-07-30T04:57:01;2.97;;;1.60;;
15689;SDS011;7945;48.816;11.506;2023-07-30T04:59:28;2.15;;;1.80;;
15689;SDS011;7945;48.816;11.506;2023-07-30T05:01:55;1.88;;;1.70;;
15689;SDS011;7945;48.816;11.506;2023-07-30T05:04:23;3.78;;;1.52;;
15689;SDS011;7945;48.816;11.506;2023-07-30T05:06:50;2.42;;;1.92;;
15689;SDS011;7945;48.816;11.506;2023-07-30T05:09:16;5.15;;;1.67;;
15689;SDS011;7945;48.816;11.506;2023-07-30T05:11:43;2.85;;;1.95;;
15689;SDS011;7945;48.816;11.506;2023-07-30T05:14:10;2.47;;;1.60;;
15689;SDS011;7945;48.816;11.506;2023-07-30T05:16:37;3.35;;;1.75;;
15689;SDS011;7945;48.816;11.506;2023-07-30T05:19:03;3.03;;;1.63;;
15689;SDS011;7945;48.816;11.506;2023-07-30T05:21:32;2.13;;;1.85;;
15689;SDS011;7945;48.816;11.506;2023-07-30T05:23:58;4.18;;;1.70;;
15689;SDS011;7945;48.816;11.506;2023-07-30T05:26:25;1.95;;;1.50;;
15689;SDS011;7945;48.816;11.506;2023-07-30T05:28:52;3.78;;;1.65;;
15689;SDS011;7945;48.816;11.506;2023-07-30T05:31:18;2.08;;;1.88;;
15689;SDS011;7945;48.816;11.506;2023-07-30T05:33:45;2.00;;;1.73;;
15689;SDS011;7945;48.816;11.506;2023-07-30T05:36:13;2.50;;;1.42;;
15689;SDS011;7945;48.816;11.506;2023-07-30T05:38:41;1.60;;;1.50;;
15689;SDS011;7945;48.816;11.506;2023-07-30T05:41:07;3.95;;;2.10;;
15689;SDS011;7945;48.816;11.506;2023-07-30T05:43:34;2.53;;;2.13;;
15689;SDS011;7945;48.816;11.506;2023-07-30T05:46:01;4.40;;;2.20;;
15689;SDS011;7945;48.816;11.506;2023-07-30T05:48:28;3.03;;;2.15;;
15689;SDS011;7945;48.816;11.506;2023-07-30T05:50:54;1.95;;;1.70;;
15689;SDS011;7945;48.816;11.506;2023-07-30T05:53:21;3.45;;;2.30;;
15689;SDS011;7945;48.816;11.506;2023-07-30T05:55:49;2.90;;;2.17;;
15689;SDS011;7945;48.816;11.506;2023-07-30T05:58:16;4.22;;;2.20;;
15689;SDS011;7945;48.816;11.506;2023-07-30T06:00:43;4.13;;;2.63;;
15689;SDS011;7945;48.816;11.506;2023-07-30T06:03:10;2.97;;;2.70;;
15689;SDS011;7945;48.816;11.506;2023-07-30T06:05:38;3.80;;;2.95;;
15689;SDS011;7945;48.816;11.506;2023-07-30T06:08:06;3.15;;;2.85;;
15689;SDS011;7945;48.816;11.506;2023-07-30T06:10:34;3.20;;;2.90;;
15689;SDS011;7945;48.816;11.506;2023-07-30T06:15:38;4.00;;;2.70;;
15689;SDS011;7945;48.816;11.506;2023-07-30T06:18:05;5.40;;;2.90;;
15689;SDS011;7945;48.816;11.506;2023-07-30T06:20:32;3.55;;;2.90;;
15689;SDS011;7945;48.816;11.506;2023-07-30T06:22:58;4.97;;;3.03;;
15689;SDS011;7945;48.816;11.506;2023-07-30T06:25:25;4.65;;;3.00;;
15689;SDS011;7945;48.816;11.506;2023-07-30T06:27:52;3.58;;;2.83;;
15689;SDS011;7945;48.816;11.506;2023-07-30T06:30:19;3.03;;;2.70;;
15689;SDS011;7945;48.816;11.506;2023-07-30T06:32:47;3.58;;;2.92;;
15689;SDS011;7945;48.816;11.506;2023-07-30T06:35:14;3.42;;;2.90;;
15689;SDS011;7945;48.816;11.506;2023-07-30T06:37:41;3.03;;;2.63;;
15689;SDS011;7945;48.816;11.506;2023-07-30T06:40:07;4.55;;;2.78;;
15689;SDS011;7945;48.816;11.506;2023-07-30T06:42:34;2.97;;;2.40;;
15689;SDS011;7945;48.816;11.506;2023-07-30T06:45:01;3.17;;;2.78;;
15689;SDS011;7945;48.816;11.506;2023-07-30T06:47:28;4.35;;;2.60;;
15689;SDS011;7945;48.816;11.506;2023-07-30T06:49:57;3.67;;;2.55;;
15689;SDS011;7945;48.816;11.506;2023-07-30T06:52:23;4.43;;;2.90;;
15689;SDS011;7945;48.816;11.506;2023-07-30T06:54:50;4.05;;;2.70;;
15689;SDS011;7945;48.816;11.506;2023-07-30T06:57:17;2.72;;;2.53;;
15689;SDS011;7945;48.816;11.506;2023-07-30T06:59:44;3.10;;;2.80;;
15689;SDS011;7945;48.816;11.506;2023-07-30T07:02:10;4.13;;;3.22;;
15689;SDS011;7945;48.816;11.506;2023-07-30T07:04:37;3.30;;;2.42;;
15689;SDS011;7945;48.816;11.506;2023-07-30T07:07:05;4.13;;;2.42;;
15689;SDS011;7945;48.816;11.506;2023-07-30T07:09:32;5.07;;;2.40;;
15689;SDS011;7945;48.816;11.506;2023-07-30T07:11:59;2.95;;;2.53;;
15689;SDS011;7945;48.816;11.506;2023-07-30T07:14:26;2.83;;;2.28;;
15689;SDS011;7945;48.816;11.506;2023-07-30T07:16:53;2.63;;;2.30;;
15689;SDS011;7945;48.816;11.506;2023-07-30T07:19:21;3.00;;;2.70;;
15689;SDS011;7945;48.816;11.506;2023-07-30T07:21:48;3.63;;;2.78;;
15689;SDS011;7945;48.816;11.506;2023-07-30T07:24:16;3.40;;;2.30;;
15689;SDS011;7945;48.816;11.506;2023-07-30T07:26:43;6.15;;;2.50;;
15689;SDS011;7945;48.816;11.506;2023-07-30T07:29:10;3.08;;;2.70;;
15689;SDS011;7945;48.816;11.506;2023-07-30T07:31:36;2.90;;;2.30;;
15689;SDS011;7945;48.816;11.506;2023-07-30T07:34:03;3.15;;;2.63;;
15689;SDS011;7945;48.816;11.506;2023-07-30T07:36:30;2.90;;;2.10;;
15689;SDS011;7945;48.816;11.506;2023-07-30T07:38:56;2.63;;;2.08;;
15689;SDS011;7945;48.816;11.506;2023-07-30T07:41:25;3.20;;;2.38;;
15689;SDS011;7945;48.816;11.506;2023-07-30T07:43:51;5.07;;;2.70;;
15689;SDS011;7945;48.816;11.506;2023-07-30T07:46:18;2.70;;;2.50;;
15689;SDS011;7945;48.816;11.506;2023-07-30T07:48:45;3.55;;;2.40;;
15689;SDS011;7945;48.816;11.506;2023-07-30T07:51:12;2.72;;;2.50;;
15689;SDS011;7945;48.816;11.506;2023-07-30T07:53:39;4.35;;;2.95;;
15689;SDS011;7945;48.816;11.506;2023-07-30T07:56:06;3.15;;;2.60;;
15689;SDS011;7945;48.816;11.506;2023-07-30T07:58:34;3.50;;;2.83;;
15689;SDS011;7945;48.816;11.506;2023-07-30T08:01:01;2.90;;;2.70;;
15689;SDS011;7945;48.816;11.506;2023-07-30T08:03:27;2.65;;;2.45;;
15689;SDS011;7945;48.816;11.506;2023-07-30T08:05:54;4.35;;;2.78;;
15689;SDS011;7945;48.816;11.506;2023-07-30T08:08:21;3.25;;;2.60;;
15689;SDS011;7945;48.816;11.506;2023-07-30T08:10:50;3.70;;;2.95;;
15689;SDS011;7945;48.816;11.506;2023-07-30T08:13:17;6.20;;;3.20;;
15689;SDS011;7945;48.816;11.506;2023-07-30T08:15:45;3.50;;;2.78;;
15689;SDS011;7945;48.816;11.506;2023-07-30T08:18:11;2.88;;;2.58;;
15689;SDS011;7945;48.816;11.506;2023-07-30T08:20:38;2.90;;;2.53;;
15689;SDS011;7945;48.816;11.506;2023-07-30T08:23:05;5.60;;;2.63;;
15689;SDS011;7945;48.816;11.506;2023-07-30T08:25:32;2.47;;;2.28;;
15689;SDS011;7945;48.816;11.506;2023-07-30T08:27:59;2.40;;;2.20;;
15689;SDS011;7945;48.816;11.506;2023-07-30T08:30:25;2.17;;;1.98;;
15689;SDS011;7945;48.816;11.506;2023-07-30T08:32:54;2.30;;;2.10;;
15689;SDS011;7945;48.816;11.506;2023-07-30T08:35:20;3.03;;;2.50;;
15689;SDS011;7945;48.816;11.506;2023-07-30T08:37:47;3.97;;;2.15;;
15689;SDS011;7945;48.816;11.506;2023-07-30T08:40:14;4.18;;;2.03;;
15689;SDS011;7945;48.816;11.506;2023-07-30T08:42:41;3.20;;;2.25;;
15689;SDS011;7945;48.816;11.506;2023-07-30T08:45:08;2.60;;;2.40;;
15689;SDS011;7945;48.816;11.506;2023-07-30T08:47:35;2.50;;;2.30;;
15689;SDS011;7945;48.816;11.506;2023-07-30T08:50:03;3.05;;;2.58;;
15689;SDS011;7945;48.816;11.506;2023-07-30T08:52:31;3.60;;;2.40;;
15689;SDS011;7945;48.816;11.506;2023-07-30T08:55:01;3.70;;;2.75;;
15689;SDS011;7945;48.816;11.506;2023-07-30T08:57:28;4.07;;;2.90;;
15689;SDS011;7945;48.816;11.506;2023-07-30T08:59:58;6.00;;;2.72;;
15689;SDS011;7945;48.816;11.506;2023-07-30T09:02:30;2.65;;;2.45;;
15689;SDS011;7945;48.816;11.506;2023-07-30T09:05:00;2.75;;;2.50;;
15689;SDS011;7945;48.816;11.506;2023-07-30T09:07:29;2.58;;;2.38;;
15689;SDS011;7945;48.816;11.506;2023-07-30T09:09:56;4.40;;;3.10;;
15689;SDS011;7945;48.816;11.506;2023-07-30T09:12:25;2.15;;;1.95;;
15689;SDS011;7945;48.816;11.506;2023-07-30T09:14:52;2.40;;;2.15;;
15689;SDS011;7945;48.816;11.506;2023-07-30T09:17:19;2.35;;;2.15;;
15689;SDS011;7945;48.816;11.506;2023-07-30T09:19:46;2.30;;;2.10;;
15689;SDS011;7945;48.816;11.506;2023-07-30T09:22:19;3.05;;;2.10;;
15689;SDS011;7945;48.816;11.506;2023-07-30T09:24:48;2.10;;;1.95;;
15689;SDS011;7945;48.816;11.506;2023-07-30T09:27:19;2.40;;;2.05;;
15689;SDS011;7945;48.816;11.506;2023-07-30T09:29:50;1.80;;;1.70;;
15689;SDS011;7945;48.816;11.506;2023-07-30T09:32:17;2.17;;;1.98;;
15689;SDS011;7945;48.816;11.506;2023-07-30T09:34:44;2.08;;;1.70;;
15689;SDS011;7945;48.816;11.506;2023-07-30T09:37:12;1.85;;;1.73;;
15689;SDS011;7945;48.816;11.506;2023-07-30T09:39:39;2.55;;;1.85;;
15689;SDS011;7945;48.816;11.506;2023-07-30T09:42:08;2.72;;;1.70;;
15689;SDS011;7945;48.816;11.506;2023-07-30T09:44:36;2.45;;;1.90;;
15689;SDS011;7945;48.816;11.506;2023-07-30T09:47:05;2.00;;;1.83;;
15689;SDS011;7945;48.816;11.506;2023-07-30T09:49:35;2.28;;;2.08;;
15689;SDS011;7945;48.816;11.506;2023-07-30T09:52:02;2.00;;;1.80;;
15689;SDS011;7945;48.816;11.506;2023-07-30T09:54:30;2.58;;;2.00;;
15689;SDS011;7945;48.816;11.506;2023-07-30T09:56:58;2.50;;;1.80;;
15689;SDS011;7945;48.816;11.506;2023-07-30T09:59:26;2.20;;;2.00;;
15689;SDS011;7945;48.816;11.506;2023-07-30T10:01:53;2.20;;;2.00;;
15689;SDS011;7945;48.816;11.506;2023-07-30T10:04:21;2.38;;;1.85;;
15689;SDS011;7945;48.816;11.506;2023-07-30T10:06:49;1.80;;;1.70;;
15689;SDS011;7945;48.816;11.506;2023-07-30T10:09:20;2.60;;;1.80;;
15689;SDS011;7945;48.816;11.506;2023-07-30T10:11:48;2.00;;;1.63;;
15689;SDS011;7945;48.816;11.506;2023-07-30T10:14:17;2.92;;;1.60;;
15689;SDS011;7945;48.816;11.506;2023-07-30T10:16:52;1.70;;;1.60;;
15689;SDS011;7945;48.816;11.506;2023-07-30T10:19:23;2.00;;;1.80;;
15689;SDS011;7945;48.816;11.506;2023-07-30T10:21:51;2.00;;;1.80;;
15689;SDS011;7945;48.816;11.506;2023-07-30T10:24:19;2.03;;;1.55;;
15689;SDS011;7945;48.816;11.506;2023-07-30T10:26:46;2.40;;;1.50;;
15689;SDS011;7945;48.816;11.506;2023-07-30T10:29:14;2.10;;;1.80;;
15689;SDS011;7945;48.816;11.506;2023-07-30T10:31:42;1.75;;;1.65;;
15689;SDS011;7945;48.816;11.506;2023-07-30T10:34:14;1.98;;;1.60;;
15689;SDS011;7945;48.816;11.506;2023-07-30T10:36:42;1.60;;;1.50;;
15689;SDS011;7945;48.816;11.506;2023-07-30T10:39:11;1.60;;;1.48;;
15689;SDS011;7945;48.816;11.506;2023-07-30T10:41:39;1.58;;;1.48;;
15689;SDS011;7945;48.816;11.506;2023-07-30T10:44:06;2.38;;;1.60;;
15689;SDS011;7945;48.816;11.506;2023-07-30T10:46:32;2.05;;;1.70;;
15689;SDS011;7945;48.816;11.506;2023-07-30T10:48:59;1.60;;;1.50;;
15689;SDS011;7945;48.816;11.506;2023-07-30T10:51:27;1.98;;;1.60;;
15689;SDS011;7945;48.816;11.506;2023-07-30T10:53:54;1.48;;;1.30;;
15689;SDS011;7945;48.816;11.506;2023-07-30T10:56:22;1.65;;;1.50;;
15689;SDS011;7945;48.816;11.506;2023-07-30T10:58:50;2.55;;;1.23;;
15689;SDS011;7945;48.816;11.506;2023-07-30T11:01:18;1.42;;;1.33;;
15689;SDS011;7945;48.816;11.506;2023-07-30T11:03:48;1.30;;;1.20;;
15689;SDS011;7945;48.816;11.506;2023-07-30T11:06:20;1.45;;;1.33;;
15689;SDS011;7945;48.816;11.506;2023-07-30T11:08:49;3.10;;;1.70;;
15689;SDS011;7945;48.816;11.506;2023-07-30T11:11:16;1.60;;;1.08;;
15689;SDS011;7945;48.816;11.506;2023-07-30T11:13:43;1.52;;;1.30;;
15689;SDS011;7945;48.816;11.506;2023-07-30T11:16:12;1.17;;;1.00;;
15689;SDS011;7945;48.816;11.506;2023-07-30T11:18:40;1.52;;;1.10;;
15689;SDS011;7945;48.816;11.506;2023-07-30T11:21:08;1.80;;;1.20;;
15689;SDS011;7945;48.816;11.506;2023-07-30T11:23:37;1.20;;;1.02;;
15689;SDS011;7945;48.816;11.506;2023-07-30T11:26:08;1.25;;;1.13;;
15689;SDS011;7945;48.816;11.506;2023-07-30T11:28:39;1.20;;;1.10;;
15689;SDS011;7945;48.816;11.506;2023-07-30T11:31:06;1.23;;;1.00;;
15689;SDS011;7945;48.816;11.506;2023-07-30T11:33:34;1.20;;;1.00;;
15689;SDS011;7945;48.816;11.506;2023-07-30T11:36:02;1.20;;;1.10;;
15689;SDS011;7945;48.816;11.506;2023-07-30T11:38:29;2.65;;;1.13;;
15689;SDS011;7945;48.816;11.506;2023-07-30T11:40:58;1.27;;;1.10;;
15689;SDS011;7945;48.816;11.506;2023-07-30T11:43:26;2.45;;;1.20;;
15689;SDS011;7945;48.816;11.506;2023-07-30T11:46:09;1.10;;;1.00;;
15689;SDS011;7945;48.816;11.506;2023-07-30T11:48:38;1.45;;;0.90;;
15689;SDS011;7945;48.816;11.506;2023-07-30T11:51:06;1.30;;;1.20;;
15689;SDS011;7945;48.816;11.506;2023-07-30T11:53:45;1.38;;;0.93;;
15689;SDS011;7945;48.816;11.506;2023-07-30T11:56:17;1.63;;;1.10;;
15689;SDS011;7945;48.816;11.506;2023-07-30T11:58:50;1.20;;;1.10;;
15689;SDS011;7945;48.816;11.506;2023-07-30T12:01:18;1.30;;;1.20;;
15689;SDS011;7945;48.816;11.506;2023-07-30T12:03:45;1.50;;;1.40;;
15689;SDS011;7945;48.816;11.506;2023-07-30T12:06:12;2.35;;;1.20;;
15689;SDS011;7945;48.816;11.506;2023-07-30T12:08:39;2.45;;;1.30;;
15689;SDS011;7945;48.816;11.506;2023-07-30T12:11:06;1.10;;;1.05;;
15689;SDS011;7945;48.816;11.506;2023-07-30T12:13:34;1.83;;;1.27;;
15689;SDS011;7945;48.816;11.506;2023-07-30T12:16:09;1.80;;;1.30;;
15689;SDS011;7945;48.816;11.506;2023-07-30T12:18:37;1.65;;;1.50;;
15689;SDS011;7945;48.816;11.506;2023-07-30T12:21:04;1.65;;;1.15;;
15689;SDS011;7945;48.816;11.506;2023-07-30T12:23:32;1.58;;;1.48;;
15689;SDS011;7945;48.816;11.506;2023-07-30T12:25:59;1.30;;;1.20;;
15689;SDS011;7945;48.816;11.506;2023-07-30T12:28:28;1.50;;;1.40;;
15689;SDS011;7945;48.816;11.506;2023-07-30T12:30:55;3.65;;;1.40;;
15689;SDS011;7945;48.816;11.506;2023-07-30T12:33:24;1.48;;;1.38;;
15689;SDS011;7945;48.816;11.506;2023-07-30T12:35:51;1.50;;;1.40;;
15689;SDS011;7945;48.816;11.506;2023-07-30T12:38:18;1.52;;;1.30;;
15689;SDS011;7945;48.816;11.506;2023-07-30T12:40:46;1.70;;;1.30;;
15689;SDS011;7945;48.816;11.506;2023-07-30T12:43:13;2.60;;;1.45;;
15689;SDS011;7945;48.816;11.506;2023-07-30T12:45:40;2.25;;;1.17;;
15689;SDS011;7945;48.816;11.506;2023-07-30T12:48:07;1.38;;;1.27;;
15689;SDS011;7945;48.816;11.506;2023-07-30T12:50:36;1.52;;;1.40;;
15689;SDS011;7945;48.816;11.506;2023-07-30T12:53:03;1.50;;;1.40;;
15689;SDS011;7945;48.816;11.506;2023-07-30T12:55:31;1.88;;;1.30;;
15689;SDS011;7945;48.816;11.506;2023-07-30T12:57:58;1.35;;;1.23;;
15689;SDS011;7945;48.816;11.506;2023-07-30T13:00:25;2.25;;;1.40;;
15689;SDS011;7945;48.816;11.506;2023-07-30T13:02:55;1.95;;;1.45;;
15689;SDS011;7945;48.816;11.506;2023-07-30T13:05:58;3.78;;;1.23;;
15689;SDS011;7945;48.816;11.506;2023-07-30T13:08:47;2.00;;;1.48;;
15689;SDS011;7945;48.816;11.506;2023-07-30T13:21:47;1.60;;;1.30;;
15689;SDS011;7945;48.816;11.506;2023-07-30T13:36:11;1.40;;;1.30;;
15689;SDS011;7945;48.816;11.506;2023-07-30T14:12:40;1.77;;;1.50;;
15689;SDS011;7945;48.816;11.506;2023-07-30T14:15:07;3.75;;;1.63;;
15689;SDS011;7945;48.816;11.506;2023-07-30T14:17:34;1.80;;;1.50;;
15689;SDS011;7945;48.816;11.506;2023-07-30T14:20:01;4.30;;;1.63;;
15689;SDS011;7945;48.816;11.506;2023-07-30T14:22:28;1.98;;;1.77;;
15689;SDS011;7945;48.816;11.506;2023-07-30T14:24:55;4.13;;;1.42;;
15689;SDS011;7945;48.816;11.506;2023-07-30T14:27:23;2.22;;;1.50;;
15689;SDS011;7945;48.816;11.506;2023-07-30T14:29:52;1.85;;;1.50;;
15689;SDS011;7945;48.816;11.506;2023-07-30T14:32:19;2.00;;;1.52;;
15689;SDS011;7945;48.816;11.506;2023-07-30T14:34:46;1.58;;;1.48;;
15689;SDS011;7945;48.816;11.506;2023-07-30T14:37:13;1.73;;;1.40;;
15689;SDS011;7945;48.816;11.506;2023-07-30T14:39:40;2.42;;;1.80;;
15689;SDS011;7945;48.816;11.506;2023-07-30T14:42:07;1.85;;;1.55;;
15689;SDS011;7945;48.816;11.506;2023-07-30T14:44:34;4.55;;;1.55;;
15689;SDS011;7945;48.816;11.506;2023-07-30T14:47:02;3.33;;;1.50;;
15689;SDS011;7945;48.816;11.506;2023-07-30T14:49:30;1.40;;;1.30;;
15689;SDS011;7945;48.816;11.506;2023-07-30T14:51:56;3.55;;;1.50;;
15689;SDS011;7945;48.816;11.506;2023-07-30T14:54:23;3.08;;;1.60;;
15689;SDS011;7945;48.816;11.506;2023-07-30T14:56:50;1.98;;;1.55;;
15689;SDS011;7945;48.816;11.506;2023-07-30T14:59:16;1.90;;;1.50;;
15689;SDS011;7945;48.816;11.506;2023-07-30T15:01:43;3.22;;;1.55;;
15689;SDS011;7945;48.816;11.506;2023-07-30T15:04:11;1.67;;;1.50;;
15689;SDS011;7945;48.816;11.506;2023-07-30T15:06:38;1.67;;;1.42;;
15689;SDS011;7945;48.816;11.506;2023-07-30T15:09:05;2.92;;;1.60;;
15689;SDS011;7945;48.816;11.506;2023-07-30T15:11:32;4.70;;;1.52;;
15689;SDS011;7945;48.816;11.506;2023-07-30T15:13:58;1.95;;;1.55;;
15689;SDS011;7945;48.816;11.506;2023-07-30T15:16:25;1.70;;;1.55;;
15689;SDS011;7945;48.816;11.506;2023-07-30T15:18:52;1.85;;;1.40;;
15689;SDS011;7945;48.816;11.506;2023-07-30T15:21:20;2.40;;;1.52;;
15689;SDS011;7945;48.816;11.506;2023-07-30T15:23:47;2.85;;;1.55;;
15689;SDS011;7945;48.816;11.506;2023-07-30T15:26:13;2.83;;;1.50;;
15689;SDS011;7945;48.816;11.506;2023-07-30T15:28:40;1.95;;;1.60;;
15689;SDS011;7945;48.816;11.506;2023-07-30T15:31:07;1.70;;;1.60;;
15689;SDS011;7945;48.816;11.506;2023-07-30T15:33:35;2.00;;;1.55;;
15689;SDS011;7945;48.816;11.506;2023-07-30T15:36:01;2.33;;;1.50;;
15689;SDS011;7945;48.816;11.506;2023-07-30T15:38:30;1.80;;;1.58;;
15689;SDS011;7945;48.816;11.506;2023-07-30T15:40:57;2.38;;;1.60;;
15689;SDS011;7945;48.816;11.506;2023-07-30T15:43:23;4.22;;;1.98;;
15689;SDS011;7945;48.816;11.506;2023-07-30T15:45:51;5.75;;;1.58;;
15689;SDS011;7945;48.816;11.506;2023-07-30T15:48:18;1.80;;;1.33;;